Time;durP1;ratioP1;P1;durP2;ratioP2;P2;SDS_P1;SDS_P2;PMS_P1;PMS_P2;Temp;Humidity;BMP_temperature;BMP_pressure;BME280_temperature;BME280_humidity;BME280_pressure;Samples;Min_cycle;Max_cycle;Signal;HPM_P1;HPM_P2
2024/02/08 00:00:55;;;;;;;5.60;2.53;;;;;;;5.79;nan;94755.09;2066399;28;20038;-58
2024/02/08 00:01:57;;;;;;;5.35;2.42;;;;;;;5.80;nan;94758.50;2066520;28;20427;-59
2024/02/08 00:02:58;;;;;;;3.15;1.80;;;;;;;5.80;nan;94758.50;2066305;28;20046;-60
2024/02/08 00:04:00;;;;;;;6.07;2.40;;;;;;;5.81;nan;94745.56;2066501;28;20049;-59
2024/02/08 00:05:02;;;;;;;3.70;1.75;;;;;;;5.85;nan;94759.13;2065922;28;20038;-59
2024/02/08 00:06:03;;;;;;;3.72;1.90;;;;;;;5.85;nan;94764.28;2057132;28;20066;-59
2024/02/08 00:07:04;;;;;;;4.45;2.40;;;;;;;5.87;nan;94762.47;2049281;29;20454;-57
2024/02/08 00:08:06;;;;;;;5.82;2.47;;;;;;;5.86;nan;94761.63;2057614;28;20050;-58
2024/02/08 00:09:08;;;;;;;3.67;2.05;;;;;;;5.88;nan;94758.97;2057607;28;20050;-59
2024/02/08 00:10:09;;;;;;;3.28;1.95;;;;;;;5.87;nan;94755.56;2057800;28;20050;-60
2024/02/08 00:11:10;;;;;;;4.25;1.83;;;;;;;5.86;nan;94759.06;2066230;28;20046;-59
2024/02/08 00:12:11;;;;;;;3.05;1.35;;;;;;;5.86;nan;94753.91;2065580;28;20058;-59
2024/02/08 00:13:13;;;;;;;4.10;1.77;;;;;;;5.84;nan;94742.84;2066352;28;20058;-59
2024/02/08 00:14:14;;;;;;;4.80;2.38;;;;;;;5.83;nan;94756.63;2065598;28;20061;-58
2024/02/08 00:15:15;;;;;;;4.07;1.80;;;;;;;5.84;nan;94762.63;2065830;28;20050;-57
2024/02/08 00:16:16;;;;;;;5.47;2.63;;;;;;;5.84;nan;94763.44;2066169;28;20053;-57
2024/02/08 00:17:20;;;;;;;3.83;2.33;;;;;;;5.85;nan;94761.69;2066066;28;20422;-56
2024/02/08 00:18:21;;;;;;;4.85;2.50;;;;;;;5.84;nan;94754.88;2066157;28;20045;-59
2024/02/08 00:19:22;;;;;;;5.60;2.40;;;;;;;5.82;nan;94749.81;2066008;28;20042;-59
2024/02/08 00:20:24;;;;;;;3.72;2.15;;;;;;;5.83;nan;94750.66;2065436;28;20502;-59
2024/02/08 00:21:27;;;;;;;3.45;1.67;;;;;;;5.84;nan;94747.16;2065671;28;20057;-58
2024/02/08 00:22:28;;;;;;;4.57;2.40;;;;;;;5.85;nan;94746.25;2065566;28;20054;-59
2024/02/08 00:23:30;;;;;;;4.30;2.08;;;;;;;5.85;nan;94752.22;2066261;28;20042;-59
2024/02/08 00:24:36;;;;;;;3.50;1.65;;;;;;;5.83;nan;94751.50;2066159;28;20037;-59
2024/02/08 00:25:37;;;;;;;5.47;2.35;;;;;;;5.84;nan;94749.75;2065628;28;20050;-58
2024/02/08 00:26:41;;;;;;;5.30;1.67;;;;;;;5.85;nan;94741.09;2066038;28;20410;-59
2024/02/08 00:27:42;;;;;;;5.00;2.60;;;;;;;5.84;nan;94742.84;2066073;28;20493;-57
2024/02/08 00:28:43;;;;;;;3.92;1.83;;;;;;;5.84;nan;94747.16;2065646;28;20075;-59
2024/02/08 00:29:44;;;;;;;5.22;2.20;;;;;;;5.85;nan;94739.34;2065846;28;20049;-59
2024/02/08 00:30:45;;;;;;;3.45;2.10;;;;;;;5.87;nan;94758.16;2065366;28;20030;-58
2024/02/08 00:31:48;;;;;;;3.38;1.80;;;;;;;5.84;nan;94745.41;2066289;28;20045;-58
2024/02/08 00:32:49;;;;;;;2.92;2.10;;;;;;;5.85;nan;94753.97;2065961;28;20054;-56
2024/02/08 00:33:50;;;;;;;3.50;1.95;;;;;;;5.86;nan;94758.25;2065341;28;20057;-56
2024/02/08 00:34:51;;;;;;;2.20;1.33;;;;;;;5.85;nan;94753.97;2065810;28;20058;-60
2024/02/08 00:35:52;;;;;;;2.95;1.85;;;;;;;5.85;nan;94751.41;2065585;28;20061;-58
2024/02/08 00:36:53;;;;;;;4.03;1.65;;;;;;;5.84;nan;94750.56;2065990;28;20482;-58
2024/02/08 00:37:54;;;;;;;5.70;1.35;;;;;;;5.82;nan;94744.66;2065572;28;20050;-58
2024/02/08 00:38:55;;;;;;;2.92;1.52;;;;;;;5.85;nan;94749.66;2065965;28;20414;-58
2024/02/08 00:39:57;;;;;;;4.00;1.60;;;;;;;5.85;nan;94751.41;2065927;28;20038;-58
2024/02/08 00:40:58;;;;;;;3.63;1.58;;;;;;;5.84;nan;94732.53;2066030;28;20034;-58
2024/02/08 00:41:59;;;;;;;3.47;1.38;;;;;;;5.84;nan;94740.25;2065971;28;20497;-58
2024/02/08 00:43:05;;;;;;;2.85;1.88;;;;;;;5.86;nan;94738.44;2065317;28;20043;-58
2024/02/08 00:44:06;;;;;;;2.90;1.45;;;;;;;5.89;nan;94743.44;2066034;28;20076;-57
2024/02/08 00:45:10;;;;;;;3.50;1.67;;;;;;;5.88;nan;94740.94;2065645;28;20395;-58
2024/02/08 00:46:11;;;;;;;3.33;1.95;;;;;;;5.88;nan;94731.50;2066036;28;20049;-56
2024/02/08 00:47:13;;;;;;;3.78;2.20;;;;;;;5.87;nan;94736.72;2066280;28;20034;-58
2024/02/08 00:48:14;;;;;;;2.58;1.20;;;;;;;5.85;nan;94729.03;2065359;28;20054;-57
2024/02/08 00:49:16;;;;;;;3.67;2.08;;;;;;;5.86;nan;94735.88;2065593;28;20065;-58
2024/02/08 00:50:19;;;;;;;2.10;1.00;;;;;;;5.87;nan;94734.97;2065426;28;20046;-56
2024/02/08 00:51:21;;;;;;;2.60;1.40;;;;;;;5.88;nan;94730.63;2065898;28;20045;-58
2024/02/08 00:52:22;;;;;;;2.95;1.90;;;;;;;5.89;nan;94730.56;2065941;28;20045;-56
2024/02/08 00:53:23;;;;;;;3.08;1.30;;;;;;;5.87;nan;94740.09;2057373;28;20038;-58
2024/02/08 00:54:24;;;;;;;3.28;1.77;;;;;;;5.88;nan;94733.22;2056370;28;20051;-57
2024/02/08 00:55:26;;;;;;;2.72;1.67;;;;;;;5.88;nan;94741.78;2065934;28;20042;-55
2024/02/08 00:56:27;;;;;;;2.60;1.25;;;;;;;5.88;nan;94722.91;2065944;28;20038;-58
2024/02/08 00:57:29;;;;;;;4.15;2.30;;;;;;;5.90;nan;94745.09;2065540;28;20053;-58
2024/02/08 00:58:30;;;;;;;2.92;1.70;;;;;;;5.90;nan;94739.94;2056827;28;20047;-57
2024/02/08 00:59:31;;;;;;;1.95;1.05;;;;;;;5.94;nan;94733.78;2057254;28;20035;-57
2024/02/08 01:00:37;;;;;;;3.75;1.20;;;;;;;5.99;nan;94748.16;2066150;28;20403;-58
2024/02/08 01:01:39;;;;;;;1.65;1.05;;;;;;;5.96;nan;94744.88;2065320;28;20065;-58
2024/02/08 01:02:40;;;;;;;3.65;2.08;;;;;;;5.97;nan;94746.53;2056309;28;20049;-56
2024/02/08 01:03:42;;;;;;;2.42;1.10;;;;;;;5.99;nan;94728.41;2057089;28;20042;-57
2024/02/08 01:04:48;;;;;;;3.08;1.65;;;;;;;6.05;nan;94730.69;2056677;28;20480;-58
2024/02/08 01:05:52;;;;;;;3.45;1.70;;;;;;;6.05;nan;94728.09;2057968;28;20525;-55
2024/02/08 01:06:53;;;;;;;2.35;1.33;;;;;;;6.05;nan;94738.41;2065853;28;20038;-57
2024/02/08 01:07:54;;;;;;;6.38;1.27;;;;;;;6.07;nan;94710.81;2066066;28;20494;-58
2024/02/08 01:08:55;;;;;;;1.85;1.10;;;;;;;6.10;nan;94736.44;2065605;28;20062;-58
2024/02/08 01:09:56;;;;;;;2.90;1.55;;;;;;;6.09;nan;94747.66;2065904;28;20410;-58
2024/02/08 01:10:57;;;;;;;2.90;1.55;;;;;;;6.11;nan;94750.16;2065625;28;20038;-55
2024/02/08 01:12:01;;;;;;;2.22;1.02;;;;;;;6.10;nan;94749.34;2066066;28;20042;-55
2024/02/08 01:13:04;;;;;;;3.25;1.30;;;;;;;6.10;nan;94739.03;2064891;28;20486;-55
2024/02/08 01:14:05;;;;;;;2.45;1.33;;;;;;;6.13;nan;94745.78;2065294;28;20061;-55
2024/02/08 01:15:06;;;;;;;2.95;1.60;;;;;;;6.13;nan;94740.63;2065358;28;20051;-57
2024/02/08 01:16:11;;;;;;;3.25;1.50;;;;;;;6.14;nan;94748.25;2065677;28;20073;-57
2024/02/08 01:17:14;;;;;;;5.55;1.35;;;;;;;6.14;nan;94750.00;2065280;28;20497;-57
2024/02/08 01:18:17;;;;;;;2.13;1.10;;;;;;;6.12;nan;94732.06;2065367;28;20059;-56
2024/02/08 01:19:25;;;;;;;2.47;1.30;;;;;;;6.12;nan;94734.63;2065654;28;20467;-57
2024/02/08 01:20:27;;;;;;;3.05;1.50;;;;;;;6.14;nan;94731.97;2064818;28;20042;-55
2024/02/08 01:21:30;;;;;;;2.03;1.20;;;;;;;6.15;nan;94728.50;2065723;28;20038;-57
2024/02/08 01:22:31;;;;;;;3.20;1.27;;;;;;;6.15;nan;94738.81;2065422;28;20494;-57
2024/02/08 01:23:32;;;;;;;2.58;1.48;;;;;;;6.15;nan;94728.50;2065630;28;20071;-57
2024/02/08 01:24:34;;;;;;;2.45;1.33;;;;;;;6.14;nan;94739.69;2065660;28;20042;-55
2024/02/08 01:25:35;;;;;;;3.72;1.30;;;;;;;6.13;nan;94738.88;2065661;28;20046;-56
2024/02/08 01:26:36;;;;;;;1.77;1.13;;;;;;;6.14;nan;94731.97;2065150;28;20046;-57
2024/02/08 01:27:38;;;;;;;1.65;1.17;;;;;;;6.12;nan;94737.22;2065664;28;20050;-56
2024/02/08 01:28:40;;;;;;;3.72;1.60;;;;;;;6.13;nan;94732.88;2065631;28;20410;-57
2024/02/08 01:29:41;;;;;;;2.60;1.42;;;;;;;6.15;nan;94733.66;2065566;28;20050;-56
2024/02/08 01:30:42;;;;;;;2.92;1.40;;;;;;;6.17;nan;94717.19;2065382;28;20050;-57
2024/02/08 01:31:43;;;;;;;2.63;1.63;;;;;;;6.23;nan;94734.09;2065347;28;20501;-56
2024/02/08 01:32:49;;;;;;;1.92;1.08;;;;;;;6.26;nan;94735.69;2064995;28;20422;-57
2024/02/08 01:33:50;;;;;;;3.25;1.45;;;;;;;6.26;nan;94731.34;2065243;28;20479;-57
2024/02/08 01:34:52;;;;;;;2.40;1.20;;;;;;;6.27;nan;94712.38;2065467;28;20050;-55
2024/02/08 01:35:53;;;;;;;2.38;1.30;;;;;;;6.26;nan;94713.31;2065505;28;20057;-55
2024/02/08 01:36:55;;;;;;;3.47;1.75;;;;;;;6.31;nan;94734.53;2065333;28;20406;-57
2024/02/08 01:37:56;;;;;;;3.15;1.33;;;;;;;6.34;nan;94707.78;2065170;28;20050;-57
2024/02/08 01:38:58;;;;;;;2.83;1.30;;;;;;;6.36;nan;94732.56;2064492;28;20061;-56
2024/02/08 01:39:59;;;;;;;1.73;0.98;;;;;;;6.36;nan;94717.09;2065142;28;20513;-56
2024/02/08 01:41:00;;;;;;;2.92;1.45;;;;;;;6.36;nan;94711.94;2064779;28;20054;-56
2024/02/08 01:42:02;;;;;;;3.42;1.83;;;;;;;6.35;nan;94736.03;2064886;28;20046;-54
2024/02/08 01:43:04;;;;;;;2.97;1.55;;;;;;;6.33;nan;94730.13;2048447;29;20047;-57
2024/02/08 01:44:08;;;;;;;4.40;1.77;;;;;;;6.31;nan;94720.81;2049545;28;20420;-55
2024/02/08 01:45:31;;;;;;;2.40;1.58;;;;;;;6.29;nan;94728.63;2064703;28;20064;-57
2024/02/08 01:46:38;;;;;;;2.55;1.20;;;;;;;6.29;nan;94720.88;2064859;28;20046;-55
2024/02/08 01:47:39;;;;;;;3.60;1.42;;;;;;;6.32;nan;94718.16;2065557;28;20042;-57
2024/02/08 01:48:44;;;;;;;2.65;1.38;;;;;;;6.32;nan;94720.72;2056948;28;20069;-57
2024/02/08 01:49:47;;;;;;;2.92;1.65;;;;;;;6.33;nan;94726.72;2057418;28;20054;-57
2024/02/08 01:50:50;;;;;;;2.72;1.67;;;;;;;6.33;nan;94724.97;2065292;28;20063;-57
2024/02/08 01:51:59;;;;;;;1.08;0.80;;;;;;;6.34;nan;94712.94;2065478;28;20045;-54
2024/02/08 01:53:01;;;;;;;2.05;1.20;;;;;;;6.34;nan;94712.94;2057024;28;20039;-55
2024/02/08 01:54:02;;;;;;;2.72;1.42;;;;;;;6.36;nan;94711.06;2058151;28;20055;-54
2024/02/08 01:55:05;;;;;;;3.13;1.40;;;;;;;6.37;nan;94698.13;2065117;28;20046;-56
2024/02/08 01:56:11;;;;;;;2.78;1.42;;;;;;;6.40;nan;94716.00;2056409;28;20050;-56
2024/02/08 01:57:15;;;;;;;2.60;1.60;;;;;;;6.43;nan;94707.28;2042072;29;20071;-57
2024/02/08 01:58:17;;;;;;;2.60;1.40;;;;;;;6.46;nan;94701.97;2042325;29;20048;-56
2024/02/08 01:59:19;;;;;;;3.35;1.00;;;;;;;6.50;nan;94712.97;2057098;28;20430;-56
2024/02/08 02:00:20;;;;;;;2.50;1.02;;;;;;;6.47;nan;94688.19;2064986;28;20053;-54
2024/02/08 02:01:22;;;;;;;2.63;1.50;;;;;;;6.47;nan;94697.63;2065186;28;20506;-56
2024/02/08 02:02:23;;;;;;;2.45;1.40;;;;;;;6.44;nan;94703.78;2056955;28;20062;-57
2024/02/08 02:03:24;;;;;;;2.38;1.50;;;;;;;6.44;nan;94703.78;2056759;28;20038;-57
2024/02/08 02:04:25;;;;;;;2.22;1.50;;;;;;;6.45;nan;94709.78;2056573;28;20038;-56
2024/02/08 02:05:27;;;;;;;5.03;1.40;;;;;;;6.44;nan;94706.34;2057020;28;20087;-56
2024/02/08 02:06:28;;;;;;;3.05;1.50;;;;;;;6.41;nan;94703.94;2057168;28;20514;-56
2024/02/08 02:07:30;;;;;;;3.22;1.50;;;;;;;6.38;nan;94712.66;2065877;28;20053;-56
2024/02/08 02:08:33;;;;;;;2.33;1.08;;;;;;;6.36;nan;94699.03;2064559;28;20069;-57
2024/02/08 02:09:35;;;;;;;2.72;1.52;;;;;;;6.34;nan;94713.75;2065387;28;20042;-56
2024/02/08 02:10:36;;;;;;;4.00;1.40;;;;;;;6.31;nan;94713.91;2065517;28;20042;-57
2024/02/08 02:11:57;;;;;;;2.38;1.40;;;;;;;6.32;nan;94714.75;2065035;28;20053;-56
2024/02/08 02:12:59;;;;;;;2.75;1.45;;;;;;;6.31;nan;94719.06;2056640;28;20054;-57
2024/02/08 02:14:01;;;;;;;2.40;1.30;;;;;;;6.27;nan;94714.97;2049277;28;20047;-57
2024/02/08 02:15:04;;;;;;;2.50;1.23;;;;;;;6.25;nan;94701.31;2048905;29;20066;-57
2024/02/08 02:16:05;;;;;;;2.55;1.38;;;;;;;6.21;nan;94702.41;2041258;29;20431;-56
2024/02/08 02:17:12;;;;;;;3.20;1.95;;;;;;;6.23;nan;94705.75;2041392;28;20055;-56
2024/02/08 02:18:16;;;;;;;2.53;1.70;;;;;;;6.22;nan;94714.38;2057728;28;20046;-56
2024/02/08 02:19:17;;;;;;;1.60;1.10;;;;;;;6.25;nan;94710.78;2065469;28;20046;-56
2024/02/08 02:20:18;;;;;;;4.80;1.42;;;;;;;6.27;nan;94698.66;2065651;28;20041;-57
2024/02/08 02:21:20;;;;;;;3.22;1.50;;;;;;;6.29;nan;94697.69;2064816;28;20050;-57
2024/02/08 02:22:21;;;;;;;1.77;1.25;;;;;;;6.28;nan;94708.91;2056612;28;20062;-56
2024/02/08 02:23:23;;;;;;;3.95;1.55;;;;;;;6.25;nan;94708.22;2048890;28;20600;-54
2024/02/08 02:24:24;;;;;;;2.15;1.00;;;;;;;6.24;nan;94699.66;2056976;28;20043;-57
2024/02/08 02:25:26;;;;;;;2.53;1.67;;;;;;;6.29;nan;94696.84;2056845;28;20045;-56
2024/02/08 02:26:28;;;;;;;4.35;1.83;;;;;;;6.29;nan;94704.59;2057004;28;20467;-55
2024/02/08 02:27:29;;;;;;;3.10;1.20;;;;;;;6.29;nan;94697.69;2048746;29;20050;-55
2024/02/08 02:28:30;;;;;;;3.72;1.70;;;;;;;6.34;nan;94706.00;2056863;28;20368;-57
2024/02/08 02:29:36;;;;;;;2.45;1.35;;;;;;;6.34;nan;94713.75;2049021;28;20035;-56
2024/02/08 02:30:37;;;;;;;1.75;0.95;;;;;;;6.31;nan;94700.19;2048995;29;20047;-57
2024/02/08 02:31:38;;;;;;;1.98;1.25;;;;;;;6.28;nan;94703.75;2049533;28;20043;-57
2024/02/08 02:32:41;;;;;;;1.30;0.90;;;;;;;6.29;nan;94704.59;2056613;28;20423;-55
2024/02/08 02:33:42;;;;;;;3.90;1.67;;;;;;;6.29;nan;94713.16;2056001;28;20061;-57
2024/02/08 02:34:44;;;;;;;2.88;1.17;;;;;;;6.29;nan;94707.16;2056028;28;20050;-55
2024/02/08 02:35:48;;;;;;;2.45;1.58;;;;;;;6.28;nan;94714.06;2056836;28;20046;-57
2024/02/08 02:36:51;;;;;;;1.52;1.10;;;;;;;6.25;nan;94714.19;2048879;28;20051;-55
2024/02/08 02:37:52;;;;;;;4.00;1.25;;;;;;;6.25;nan;94703.06;2050295;28;20047;-55
2024/02/08 02:38:53;;;;;;;2.15;1.08;;;;;;;6.24;nan;94706.56;2049699;28;20044;-58
2024/02/08 02:39:54;;;;;;;3.22;1.98;;;;;;;6.21;nan;94723.03;2057252;28;20054;-56
2024/02/08 02:40:55;;;;;;;3.25;1.63;;;;;;;6.23;nan;94710.03;2049401;29;20039;-58
2024/02/08 02:41:59;;;;;;;2.03;1.25;;;;;;;6.23;nan;94723.78;2048840;29;20431;-57
2024/02/08 02:43:09;;;;;;;2.08;1.27;;;;;;;6.22;nan;94692.91;2065277;28;20046;-57
2024/02/08 02:44:10;;;;;;;2.80;1.17;;;;;;;6.22;nan;94711.78;2056247;28;20569;-57
2024/02/08 02:45:13;;;;;;;2.47;1.50;;;;;;;6.21;nan;94707.56;2056618;28;20043;-58
2024/02/08 02:46:14;;;;;;;3.30;1.77;;;;;;;6.21;nan;94697.25;2064730;28;20058;-58
2024/02/08 02:47:20;;;;;;;3.42;0.90;;;;;;;6.22;nan;94710.94;2065369;28;20049;-57
2024/02/08 02:48:21;;;;;;;5.43;1.23;;;;;;;6.21;nan;94693.84;2064561;28;20046;-57
2024/02/08 02:49:23;;;;;;;3.75;1.13;;;;;;;6.24;nan;94702.22;2065215;28;20046;-57
2024/02/08 02:50:24;;;;;;;3.15;1.63;;;;;;;6.24;nan;94706.56;2065359;28;20038;-57
2024/02/08 02:51:26;;;;;;;2.08;1.33;;;;;;;6.25;nan;94708.22;2065354;28;20402;-57
2024/02/08 02:52:27;;;;;;;5.07;1.88;;;;;;;6.26;nan;94710.72;2065101;28;20046;-57
2024/02/08 02:53:31;;;;;;;2.58;1.35;;;;;;;6.24;nan;94712.53;2065697;28;20050;-57
2024/02/08 02:54:32;;;;;;;4.18;1.65;;;;;;;6.24;nan;94714.28;2066910;28;20045;-57
2024/02/08 02:55:34;;;;;;;3.78;1.55;;;;;;;6.23;nan;94710.91;2066766;28;20045;-56
2024/02/08 02:56:36;;;;;;;3.53;1.67;;;;;;;6.24;nan;94717.69;2058313;28;20046;-57
2024/02/08 02:57:37;;;;;;;3.70;1.35;;;;;;;6.25;nan;94714.19;2057351;28;20526;-56
2024/02/08 02:58:38;;;;;;;3.13;1.83;;;;;;;6.28;nan;94711.50;2066385;28;20458;-57
2024/02/08 02:59:42;;;;;;;2.65;1.67;;;;;;;6.28;nan;94708.91;2066723;28;20482;-58
2024/02/08 03:00:44;;;;;;;1.98;1.48;;;;;;;6.29;nan;94705.41;2065948;28;20054;-58
2024/02/08 03:01:49;;;;;;;4.45;1.95;;;;;;;6.30;nan;94719.97;2066778;28;20038;-57
2024/02/08 03:02:57;;;;;;;2.35;1.10;;;;;;;6.32;nan;94713.00;2066179;28;20410;-57
2024/02/08 03:03:58;;;;;;;2.67;1.67;;;;;;;6.33;nan;94721.56;2065783;28;20054;-57
2024/02/08 03:04:59;;;;;;;2.08;1.10;;;;;;;6.34;nan;94693.13;2065390;28;20062;-57
2024/02/08 03:06:00;;;;;;;2.05;1.02;;;;;;;6.35;nan;94717.97;2066471;28;20057;-57
2024/02/08 03:07:01;;;;;;;3.08;1.70;;;;;;;6.38;nan;94717.81;2066670;28;20046;-57
2024/02/08 03:08:06;;;;;;;2.50;1.58;;;;;;;6.38;nan;94710.09;2066534;28;20144;-57
2024/02/08 03:09:14;;;;;;;2.65;1.23;;;;;;;6.41;nan;94709.09;2066676;28;20046;-57
2024/02/08 03:10:21;;;;;;;2.13;1.25;;;;;;;6.38;nan;94699.78;2066796;28;20045;-57
2024/02/08 03:11:22;;;;;;;2.78;1.30;;;;;;;6.40;nan;94705.69;2058173;28;20041;-56
2024/02/08 03:12:23;;;;;;;2.10;1.52;;;;;;;6.43;nan;94716.78;2058226;28;20046;-56
2024/02/08 03:13:24;;;;;;;2.47;1.23;;;;;;;6.44;nan;94718.44;2065995;28;20042;-56
2024/02/08 03:14:26;;;;;;;2.50;1.50;;;;;;;6.43;nan;94696.97;2066830;28;20475;-57
2024/02/08 03:15:27;;;;;;;1.88;1.10;;;;;;;6.44;nan;94708.09;2066745;28;20054;-56
2024/02/08 03:16:29;;;;;;;2.30;1.13;;;;;;;6.43;nan;94711.63;2066032;28;20073;-57
2024/02/08 03:17:32;;;;;;;3.40;1.20;;;;;;;6.42;nan;94715.94;2066612;28;20418;-57
2024/02/08 03:18:33;;;;;;;3.35;1.65;;;;;;;6.39;nan;94713.53;2066100;28;20046;-57
2024/02/08 03:19:35;;;;;;;2.38;0.80;;;;;;;6.38;nan;94715.25;2066514;28;20038;-56
2024/02/08 03:20:38;;;;;;;2.50;1.42;;;;;;;6.39;nan;94680.81;2065781;28;20061;-57
2024/02/08 03:21:40;;;;;;;1.35;0.85;;;;;;;6.41;nan;94701.38;2066040;28;20050;-57
2024/02/08 03:22:42;;;;;;;3.30;1.30;;;;;;;6.42;nan;94702.22;2065936;28;20486;-57
2024/02/08 03:23:47;;;;;;;3.30;1.65;;;;;;;6.43;nan;94719.34;2066253;28;20054;-57
2024/02/08 03:24:49;;;;;;;1.70;1.13;;;;;;;6.41;nan;94703.94;2065981;28;20410;-57
2024/02/08 03:25:50;;;;;;;2.30;1.30;;;;;;;6.40;nan;94704.88;2065964;28;20054;-56
2024/02/08 03:26:51;;;;;;;2.45;1.33;;;;;;;6.38;nan;94717.00;2066799;28;20049;-57
2024/02/08 03:27:52;;;;;;;2.63;1.27;;;;;;;6.38;nan;94702.34;2066319;28;20054;-57
2024/02/08 03:28:54;;;;;;;3.47;1.80;;;;;;;6.40;nan;94702.28;2066597;28;20411;-56
2024/02/08 03:29:55;;;;;;;3.50;1.30;;;;;;;6.38;nan;94712.66;2065872;28;20050;-57
2024/02/08 03:30:56;;;;;;;3.75;1.52;;;;;;;6.37;nan;94711.00;2066749;28;20053;-57
2024/02/08 03:31:58;;;;;;;3.38;2.05;;;;;;;6.37;nan;94712.75;2066621;28;20380;-57
2024/02/08 03:32:59;;;;;;;2.42;1.48;;;;;;;6.36;nan;94705.91;2066844;28;20050;-57
2024/02/08 03:34:00;;;;;;;1.92;1.48;;;;;;;6.35;nan;94705.09;2066797;28;20045;-57
2024/02/08 03:35:01;;;;;;;4.43;1.33;;;;;;;6.36;nan;94706.78;2065955;28;20058;-57
2024/02/08 03:36:06;;;;;;;2.45;1.58;;;;;;;6.36;nan;94705.91;2066274;28;20054;-56
2024/02/08 03:37:08;;;;;;;2.67;1.50;;;;;;;6.34;nan;94708.59;2066745;28;20076;-57
2024/02/08 03:38:09;;;;;;;2.33;1.20;;;;;;;6.33;nan;94706.09;2066469;28;20043;-56
2024/02/08 03:39:21;;;;;;;4.55;2.00;;;;;;;6.35;nan;94714.56;2066462;28;20053;-57
2024/02/08 03:40:22;;;;;;;2.90;1.52;;;;;;;6.33;nan;94691.44;2066293;28;20035;-56
2024/02/08 03:41:26;;;;;;;2.90;1.90;;;;;;;6.32;nan;94710.41;2066119;28;20509;-57
2024/02/08 03:42:27;;;;;;;1.85;1.38;;;;;;;6.35;nan;94710.25;2066019;28;20037;-57
2024/02/08 03:43:28;;;;;;;5.97;1.00;;;;;;;6.35;nan;94707.66;2066208;28;20042;-57
2024/02/08 03:44:33;;;;;;;1.80;1.00;;;;;;;6.36;nan;94709.34;2066134;28;20034;-56
2024/02/08 03:45:39;;;;;;;2.80;1.75;;;;;;;6.38;nan;94714.41;2066120;28;20053;-57
2024/02/08 03:46:41;;;;;;;4.18;2.63;;;;;;;6.37;nan;94710.19;2066249;28;20045;-57
2024/02/08 03:47:44;;;;;;;2.75;1.95;;;;;;;6.37;nan;94712.75;2065491;28;20054;-56
2024/02/08 03:48:46;;;;;;;1.58;1.10;;;;;;;6.38;nan;94710.09;2065179;28;20431;-56
2024/02/08 03:49:51;;;;;;;3.70;1.98;;;;;;;6.42;nan;94720.28;2065805;28;20057;-57
2024/02/08 03:50:52;;;;;;;1.80;1.08;;;;;;;6.42;nan;94715.13;2066327;28;20046;-57
2024/02/08 03:51:53;;;;;;;3.72;1.45;;;;;;;6.43;nan;94711.63;2066358;28;20046;-57
2024/02/08 03:52:54;;;;;;;2.78;1.60;;;;;;;6.45;nan;94715.78;2066167;28;20050;-56
2024/02/08 03:54:00;;;;;;;3.80;1.50;;;;;;;6.48;nan;94710.47;2066149;28;20394;-56
2024/02/08 03:55:01;;;;;;;2.33;1.42;;;;;;;6.50;nan;94710.41;2065758;28;20046;-56
2024/02/08 03:56:05;;;;;;;1.60;1.10;;;;;;;6.51;nan;94702.56;2066308;28;20046;-56
2024/02/08 03:57:07;;;;;;;2.10;1.35;;;;;;;6.51;nan;94701.72;2065396;28;20429;-56
2024/02/08 03:58:09;;;;;;;2.70;1.45;;;;;;;6.52;nan;94711.97;2065719;28;20057;-57
2024/02/08 03:59:11;;;;;;;3.80;1.60;;;;;;;6.54;nan;94712.72;2066295;28;20045;-56
2024/02/08 04:00:14;;;;;;;2.03;1.20;;;;;;;6.54;nan;94715.28;2066434;28;20050;-57
2024/02/08 04:01:17;;;;;;;1.23;0.75;;;;;;;6.58;nan;94716.00;2065919;28;20050;-56
2024/02/08 04:02:21;;;;;;;3.47;1.67;;;;;;;6.60;nan;94719.28;2066549;28;20050;-56
2024/02/08 04:04:59;;;;;;;1.92;1.35;;;;;;;6.62;nan;94705.41;2064871;28;20446;-57
2024/02/08 04:06:03;;;;;;;3.00;1.50;;;;;;;6.62;nan;94702.81;2057535;28;20043;-56
2024/02/08 04:07:33;;;;;;;2.17;1.40;;;;;;;6.67;nan;94715.50;2058052;28;20046;-57
2024/02/08 04:10:04;;;;;;;3.20;1.40;;;;;;;6.69;nan;94712.84;2065793;28;20046;-56
2024/02/08 04:53:56;;;;;;;2.35;1.02;;;;;;;6.27;nan;94709.81;2065930;28;20046;-57
2024/02/08 04:54:57;;;;;;;3.55;1.00;;;;;;;6.28;nan;94703.75;2065839;28;20053;-57
2024/02/08 04:55:58;;;;;;;3.10;1.63;;;;;;;6.29;nan;94708.00;2065540;28;20061;-59
2024/02/08 04:56:59;;;;;;;2.97;1.60;;;;;;;6.33;nan;94703.50;2065919;28;20050;-58
2024/02/08 04:58:00;;;;;;;1.48;0.90;;;;;;;6.33;nan;94691.44;2065347;28;20513;-59
2024/02/08 04:59:05;;;;;;;2.60;1.50;;;;;;;6.37;nan;94707.59;2065725;28;20476;-57
2024/02/08 05:00:12;;;;;;;2.33;1.20;;;;;;;6.36;nan;94713.66;2065703;28;20053;-60
2024/02/08 05:01:14;;;;;;;2.20;1.02;;;;;;;6.34;nan;94705.19;2065974;28;20042;-59
2024/02/08 05:02:15;;;;;;;1.58;1.05;;;;;;;6.34;nan;94705.19;2065952;28;20050;-60
2024/02/08 05:03:17;;;;;;;2.40;1.20;;;;;;;6.32;nan;94679.47;2065855;28;20053;-61
2024/02/08 05:04:20;;;;;;;2.50;1.45;;;;;;;6.34;nan;94708.59;2065540;28;20479;-60
2024/02/08 05:05:22;;;;;;;2.30;1.15;;;;;;;6.31;nan;94701.03;2063270;28;20406;-57
2024/02/08 05:06:25;;;;;;;2.08;1.30;;;;;;;6.31;nan;94692.47;2065861;28;20038;-59
2024/02/08 05:07:27;;;;;;;2.67;1.23;;;;;;;6.31;nan;94702.78;2065834;28;20045;-60
2024/02/08 05:08:28;;;;;;;1.98;1.25;;;;;;;6.31;nan;94697.63;2065835;28;20038;-57
2024/02/08 05:09:30;;;;;;;1.98;1.15;;;;;;;6.34;nan;94702.59;2065958;28;20042;-59
2024/02/08 05:10:31;;;;;;;4.18;1.77;;;;;;;6.34;nan;94702.59;2065811;28;20034;-59
2024/02/08 05:11:36;;;;;;;2.28;1.25;;;;;;;6.35;nan;94699.94;2065371;28;20398;-56
2024/02/08 05:12:37;;;;;;;3.15;1.27;;;;;;;6.39;nan;94698.88;2064978;28;20072;-57
2024/02/08 05:13:42;;;;;;;3.05;1.17;;;;;;;6.39;nan;94690.31;2065105;28;20513;-57
2024/02/08 05:14:43;;;;;;;3.45;1.27;;;;;;;6.41;nan;94691.03;2065678;28;20049;-56
2024/02/08 05:15:46;;;;;;;2.13;0.80;;;;;;;6.41;nan;94685.88;2056679;28;20053;-56
2024/02/08 05:16:47;;;;;;;1.80;0.70;;;;;;;6.43;nan;94694.38;2056986;28;20053;-57
2024/02/08 05:17:48;;;;;;;2.88;1.10;;;;;;;6.48;nan;94696.75;2065723;28;20502;-56
2024/02/08 05:18:49;;;;;;;1.65;1.10;;;;;;;6.49;nan;94680.34;2064902;28;20050;-56
2024/02/08 05:19:51;;;;;;;1.45;0.85;;;;;;;6.50;nan;94689.75;2065672;28;20446;-56
2024/02/08 05:20:54;;;;;;;2.03;1.02;;;;;;;6.48;nan;94684.66;2065642;28;20038;-56
2024/02/08 05:21:59;;;;;;;4.75;1.10;;;;;;;6.49;nan;94691.47;2065730;28;20038;-55
2024/02/08 05:23:00;;;;;;;2.30;1.02;;;;;;;6.48;nan;94666.63;2065651;28;20046;-55
2024/02/08 05:24:03;;;;;;;1.95;0.90;;;;;;;6.53;nan;94676.69;2065586;28;20050;-56
2024/02/08 05:25:10;;;;;;;1.48;0.75;;;;;;;6.54;nan;94680.94;2065276;28;20057;-56
2024/02/08 05:26:11;;;;;;;2.55;0.98;;;;;;;6.54;nan;94674.03;2066084;28;20418;-56
2024/02/08 05:27:12;;;;;;;2.60;1.00;;;;;;;6.53;nan;94671.53;2065620;28;20118;-56
2024/02/08 05:28:14;;;;;;;1.42;1.00;;;;;;;6.55;nan;94686.03;2057077;28;20050;-56
2024/02/08 05:29:19;;;;;;;2.83;1.02;;;;;;;6.55;nan;94685.19;2057021;28;20050;-56
2024/02/08 05:30:22;;;;;;;2.22;1.10;;;;;;;6.58;nan;94680.69;2065616;28;20045;-56
2024/02/08 05:31:26;;;;;;;1.23;0.95;;;;;;;6.59;nan;94668.63;2065664;28;20042;-56
2024/02/08 05:32:27;;;;;;;2.00;1.10;;;;;;;6.62;nan;94676.22;2065612;28;20038;-56
2024/02/08 05:33:32;;;;;;;0.93;0.70;;;;;;;6.63;nan;94654.69;2065082;28;20054;-57
2024/02/08 05:34:36;;;;;;;1.58;1.10;;;;;;;6.70;nan;94676.63;2064801;28;20057;-55
2024/02/08 05:35:39;;;;;;;1.23;0.80;;;;;;;6.70;nan;94678.38;2065609;28;20037;-56
2024/02/08 05:36:40;;;;;;;1.67;1.00;;;;;;;6.67;nan;94671.63;2065670;28;20034;-56
2024/02/08 05:37:41;;;;;;;0.77;0.63;;;;;;;6.68;nan;94678.44;2065348;28;20490;-57
2024/02/08 05:38:42;;;;;;;1.73;0.90;;;;;;;6.72;nan;94681.72;2065871;28;20050;-57
2024/02/08 05:39:46;;;;;;;1.35;0.90;;;;;;;6.72;nan;94679.97;2064972;28;20077;-55
2024/02/08 05:40:48;;;;;;;2.70;1.10;;;;;;;6.72;nan;94682.56;2065526;28;20042;-55
2024/02/08 05:41:54;;;;;;;1.92;0.80;;;;;;;6.74;nan;94685.06;2065519;28;20072;-55
2024/02/08 05:42:55;;;;;;;6.53;1.30;;;;;;;6.74;nan;94679.91;2065302;28;20054;-55
2024/02/08 05:43:56;;;;;;;2.22;1.10;;;;;;;6.72;nan;94682.56;2065283;28;20049;-57
2024/02/08 05:45:18;;;;;;;3.00;1.30;;;;;;;6.73;nan;94683.38;2065654;28;20053;-55
2024/02/08 05:46:24;;;;;;;0.98;0.65;;;;;;;6.70;nan;94676.63;2065514;28;20034;-56
2024/02/08 05:47:26;;;;;;;1.42;0.85;;;;;;;6.71;nan;94675.75;2065651;28;20043;-56
2024/02/08 05:48:33;;;;;;;2.78;1.02;;;;;;;6.71;nan;94683.47;2065528;28;20041;-56
2024/02/08 05:49:34;;;;;;;1.20;0.80;;;;;;;6.72;nan;94687.72;2065637;28;20038;-56
2024/02/08 05:50:35;;;;;;;1.75;0.80;;;;;;;6.74;nan;94678.16;2064682;28;20410;-56
2024/02/08 05:51:37;;;;;;;1.48;0.80;;;;;;;6.74;nan;94675.56;2065599;28;20049;-56